Terminal Aerodrome Forecast
Issued by NWS

Home | Current Version | Previous Version | Text Only | Print | Product List | Glossary On
Versions: 1 2 3 4 5 6 7 8 9 10 11 12 13 14
000
FTUS42 KTBW 280500
TAFLAL
TAF
KLAL 280537Z 2806/2906 VRB03KT P6SM SCT250
     FM281400 26010KT P6SM SCT030 SCT250
     FM281600 26012G18KT P6SM VCTS SCT035CB SCT250
     FM282000 26012G18KT P6SM SCT040 SCT250
     FM282300 25012KT P6SM SCT050 SCT250
      AMD NOT SKED 2806/2812=

USA.gov is the U.S. government's official web portal to all federal, state and local government web resources and services.